Time;durP1;ratioP1;P1;durP2;ratioP2;P2;SDS_P1;SDS_P2;PMS_P1;PMS_P2;Temp;Humidity;BMP_temperature;BMP_pressure;BME280_temperature;BME280_humidity;BME280_pressure;Samples;Min_cycle;Max_cycle;Signal;HPM_P1;HPM_P2
2022/06/23 00:01:41;;;;;;;4.70;2.33;;;14.50;99.90;;;;;;5020557;28;20037;-71
2022/06/23 00:04:15;;;;;;;5.20;2.47;;;14.40;99.90;;;;;;5023514;28;20099;-70
2022/06/23 00:06:49;;;;;;;5.78;2.35;;;14.40;99.90;;;;;;5030221;28;20044;-71
2022/06/23 00:09:41;;;;;;;4.10;2.03;;;14.40;99.90;;;;;;5028361;28;20029;-70
2022/06/23 00:12:18;;;;;;;4.57;2.42;;;14.30;99.90;;;;;;5029577;28;20029;-70
2022/06/23 00:15:10;;;;;;;6.00;3.00;;;14.30;99.90;;;;;;5027712;28;20025;-71
2022/06/23 00:17:44;;;;;;;4.75;2.60;;;14.10;99.90;;;;;;5030079;28;20029;-69
2022/06/23 00:20:13;;;;;;;4.90;2.35;;;14.00;99.90;;;;;;5026823;28;20627;-70
2022/06/23 00:22:42;;;;;;;5.47;2.40;;;14.00;99.90;;;;;;5025191;28;20049;-70
2022/06/23 00:25:15;;;;;;;7.28;2.60;;;14.00;99.90;;;;;;5026791;28;20026;-70
2022/06/23 00:27:42;;;;;;;5.07;2.55;;;14.10;99.90;;;;;;5031750;28;20143;-70
2022/06/23 00:30:24;;;;;;;4.80;2.47;;;14.10;99.90;;;;;;5027348;28;20026;-71
2022/06/23 00:32:50;;;;;;;6.20;2.47;;;14.00;99.90;;;;;;5030619;28;20472;-72
2022/06/23 00:35:18;;;;;;;4.90;2.47;;;13.90;99.90;;;;;;5032539;28;20021;-71
2022/06/23 00:37:49;;;;;;;5.40;2.65;;;13.80;99.90;;;;;;5034698;28;20079;-71
2022/06/23 00:40:20;;;;;;;6.78;3.00;;;13.70;99.90;;;;;;5024852;28;20040;-70
2022/06/23 00:43:02;;;;;;;5.22;2.67;;;13.70;99.90;;;;;;5029365;28;20044;-70
2022/06/23 00:45:53;;;;;;;4.97;2.63;;;13.70;99.90;;;;;;5025330;28;20041;-73
2022/06/23 00:48:36;;;;;;;4.65;1.98;;;13.70;99.90;;;;;;5030809;28;20037;-73
2022/06/23 00:51:08;;;;;;;5.15;2.47;;;13.80;99.90;;;;;;5029662;28;20033;-70
2022/06/23 00:53:49;;;;;;;5.45;2.55;;;13.90;99.90;;;;;;5025785;28;20041;-70
2022/06/23 00:56:26;;;;;;;7.05;2.85;;;13.90;99.90;;;;;;5026713;28;20128;-73
2022/06/23 00:58:58;;;;;;;5.50;3.38;;;13.90;99.90;;;;;;5020705;28;20499;-70
2022/06/23 01:01:37;;;;;;;7.38;2.70;;;13.90;99.90;;;;;;5021909;28;20032;-70
2022/06/23 01:04:09;;;;;;;7.40;3.00;;;13.90;99.90;;;;;;5051943;28;20040;-72
2022/06/23 01:06:56;;;;;;;7.47;2.92;;;14.00;99.90;;;;;;5020185;28;20029;-70
2022/06/23 01:09:28;;;;;;;5.05;2.70;;;14.00;99.90;;;;;;5027913;28;20125;-70
2022/06/23 01:12:04;;;;;;;5.07;2.63;;;14.00;99.90;;;;;;5031605;28;20033;-72
2022/06/23 01:14:47;;;;;;;7.05;3.40;;;14.00;99.90;;;;;;5029035;28;20033;-70
2022/06/23 01:17:30;;;;;;;6.18;2.67;;;14.00;99.90;;;;;;5029783;28;20091;-70
2022/06/23 01:20:15;;;;;;;5.20;2.50;;;14.10;99.90;;;;;;5030795;28;20045;-70
2022/06/23 01:22:50;;;;;;;6.63;2.85;;;14.20;99.90;;;;;;5024213;28;20059;-72
2022/06/23 01:25:49;;;;;;;5.55;2.78;;;14.20;99.90;;;;;;5029025;28;20117;-70
2022/06/23 01:28:22;;;;;;;8.10;2.83;;;14.20;99.90;;;;;;5030674;28;20037;-71
2022/06/23 01:31:04;;;;;;;4.65;2.45;;;14.30;99.90;;;;;;5046408;28;20041;-71
2022/06/23 01:33:41;;;;;;;5.60;2.97;;;14.30;99.90;;;;;;5038336;28;20037;-70
2022/06/23 01:36:22;;;;;;;7.30;3.05;;;14.40;99.90;;;;;;5030309;28;20037;-70
2022/06/23 01:39:00;;;;;;;5.28;2.60;;;14.40;99.90;;;;;;5032404;28;20037;-71
2022/06/23 01:41:53;;;;;;;5.97;2.92;;;14.40;99.90;;;;;;5028874;28;20033;-70
2022/06/23 01:44:47;;;;;;;6.88;3.05;;;14.40;99.90;;;;;;5026228;28;20048;-68
2022/06/23 01:47:28;;;;;;;7.35;3.00;;;14.40;99.90;;;;;;5033185;28;20042;-71
2022/06/23 01:50:04;;;;;;;5.78;2.42;;;14.40;99.90;;;;;;5026034;28;20090;-71
2022/06/23 01:52:29;;;;;;;6.93;2.65;;;14.40;99.90;;;;;;5054240;28;20060;-69
2022/06/23 01:55:04;;;;;;;5.28;2.60;;;14.40;99.90;;;;;;5028583;28;20029;-69
2022/06/23 01:58:02;;;;;;;7.78;2.80;;;14.40;99.90;;;;;;5024041;28;20079;-68
2022/06/23 02:00:28;;;;;;;7.20;2.67;;;14.40;99.90;;;;;;5037226;28;20042;-69
2022/06/23 02:03:15;;;;;;;5.82;2.60;;;14.40;99.90;;;;;;5032826;28;20053;-70
2022/06/23 02:05:53;;;;;;;4.85;2.78;;;14.40;99.90;;;;;;5023944;28;20496;-71
2022/06/23 02:08:43;;;;;;;6.75;2.45;;;14.40;99.90;;;;;;5024445;28;20030;-72
2022/06/23 02:11:33;;;;;;;6.15;2.88;;;14.40;99.90;;;;;;5033343;28;20064;-69
2022/06/23 02:14:11;;;;;;;5.38;2.35;;;14.30;99.90;;;;;;5029525;28;20112;-72
2022/06/23 02:16:52;;;;;;;7.88;3.35;;;14.30;99.90;;;;;;5021957;28;20045;-71
2022/06/23 02:19:41;;;;;;;6.93;3.05;;;14.30;99.90;;;;;;5028554;28;20037;-73
2022/06/23 02:22:18;;;;;;;7.70;2.73;;;14.30;99.90;;;;;;5028027;28;20053;-71
2022/06/23 02:25:13;;;;;;;5.47;2.88;;;14.30;99.90;;;;;;5030813;28;20082;-72
2022/06/23 02:27:44;;;;;;;5.72;2.80;;;14.30;99.90;;;;;;5019335;28;20128;-71
2022/06/23 02:30:39;;;;;;;6.50;2.80;;;14.30;99.90;;;;;;5035815;28;20502;-72
2022/06/23 02:33:22;;;;;;;5.68;2.78;;;14.30;99.90;;;;;;5038223;28;20045;-71
2022/06/23 02:36:06;;;;;;;6.88;2.90;;;14.30;99.90;;;;;;5043051;28;20515;-70
2022/06/23 02:38:45;;;;;;;5.15;2.50;;;14.40;99.90;;;;;;5022140;28;20017;-71
2022/06/23 02:41:18;;;;;;;6.35;2.85;;;14.40;99.90;;;;;;5028600;28;20048;-70
2022/06/23 02:44:04;;;;;;;4.20;2.60;;;14.50;99.90;;;;;;5028710;28;20091;-70
2022/06/23 02:46:36;;;;;;;4.70;2.55;;;14.50;99.90;;;;;;5051630;28;20037;-71
2022/06/23 02:49:33;;;;;;;7.60;2.78;;;14.50;99.90;;;;;;5032792;28;20059;-69
2022/06/23 02:52:36;;;;;;;5.47;2.67;;;14.50;99.90;;;;;;5025056;28;20041;-71
2022/06/23 02:55:39;;;;;;;5.40;2.65;;;14.50;99.90;;;;;;5025681;28;20072;-69
2022/06/23 02:58:14;;;;;;;5.90;2.60;;;14.50;99.90;;;;;;5025276;28;20403;-71
2022/06/23 03:01:05;;;;;;;5.90;3.17;;;14.50;99.90;;;;;;5029307;28;20480;-70
2022/06/23 03:03:45;;;;;;;4.82;2.75;;;14.50;99.90;;;;;;5024917;28;20041;-69
2022/06/23 03:06:24;;;;;;;6.35;2.70;;;14.40;99.90;;;;;;5034212;28;20037;-71
2022/06/23 03:08:59;;;;;;;6.45;2.97;;;14.50;99.90;;;;;;5026827;28;20041;-70
2022/06/23 03:11:52;;;;;;;7.38;2.60;;;14.50;99.90;;;;;;5028210;28;20037;-71
2022/06/23 03:14:30;;;;;;;6.00;3.03;;;14.50;99.90;;;;;;5028135;28;20578;-70
2022/06/23 03:17:09;;;;;;;6.45;2.70;;;14.50;99.90;;;;;;5028942;28;20530;-70
2022/06/23 03:19:42;;;;;;;8.40;2.92;;;14.50;99.90;;;;;;5027729;28;20037;-70
2022/06/23 03:22:34;;;;;;;5.93;2.60;;;14.60;99.90;;;;;;5026963;28;20045;-71
2022/06/23 03:25:20;;;;;;;5.30;2.65;;;14.60;99.90;;;;;;5029970;28;20037;-71
2022/06/23 03:27:45;;;;;;;6.57;2.95;;;14.60;99.90;;;;;;5026754;28;20029;-69
2022/06/23 03:30:21;;;;;;;5.22;2.45;;;14.60;99.90;;;;;;5027019;28;20029;-70
2022/06/23 03:33:00;;;;;;;6.32;2.80;;;14.60;99.90;;;;;;5026912;28;20041;-69
2022/06/23 03:35:35;;;;;;;6.20;2.80;;;14.60;99.90;;;;;;5027496;28;20116;-70
2022/06/23 03:41:36;;;;;;;7.18;2.75;;;14.60;99.90;;;;;;5028392;28;20037;-71
2022/06/23 03:44:04;;;;;;;8.68;3.15;;;14.70;99.90;;;;;;5029069;28;20114;-70
2022/06/23 03:46:45;;;;;;;6.65;2.50;;;14.70;99.90;;;;;;5019146;28;20728;-69
2022/06/23 03:49:35;;;;;;;6.03;2.92;;;14.70;99.90;;;;;;5028259;28;20033;-70
2022/06/23 03:52:05;;;;;;;7.25;2.80;;;14.70;99.90;;;;;;5026531;28;20461;-71
2022/06/23 03:54:57;;;;;;;5.35;2.67;;;14.70;99.90;;;;;;5023936;28;20025;-69
2022/06/23 03:57:32;;;;;;;8.43;3.42;;;14.70;99.90;;;;;;5055388;28;20124;-69
2022/06/23 04:00:18;;;;;;;6.03;2.85;;;14.70;99.90;;;;;;5030860;28;20037;-71
2022/06/23 04:02:48;;;;;;;4.95;2.63;;;14.70;99.90;;;;;;5026988;28;20037;-71
2022/06/23 04:05:23;;;;;;;5.60;2.90;;;14.80;99.90;;;;;;5021436;28;20029;-72
2022/06/23 04:08:00;;;;;;;5.82;2.28;;;14.80;99.90;;;;;;5024650;28;20045;-70
2022/06/23 04:10:37;;;;;;;6.55;2.72;;;14.80;99.90;;;;;;5027943;28;20052;-70
2022/06/23 04:13:29;;;;;;;7.05;2.60;;;14.80;99.90;;;;;;5027844;28;20041;-71
2022/06/23 04:16:03;;;;;;;7.03;2.95;;;14.80;99.90;;;;;;5030043;28;20065;-71
2022/06/23 04:18:30;;;;;;;5.50;2.60;;;14.90;99.90;;;;;;5030820;28;20022;-71
2022/06/23 04:21:20;;;;;;;6.00;2.83;;;14.90;99.90;;;;;;5026520;28;20029;-71
2022/06/23 04:23:53;;;;;;;5.88;2.80;;;14.90;99.90;;;;;;5029436;28;20114;-71
2022/06/23 04:26:37;;;;;;;6.93;2.97;;;14.90;99.90;;;;;;5027768;28;20036;-70
2022/06/23 04:29:22;;;;;;;6.95;3.05;;;14.80;99.90;;;;;;5034618;28;20033;-71
2022/06/23 04:31:52;;;;;;;5.03;2.30;;;14.90;99.90;;;;;;5021039;28;20033;-70
2022/06/23 04:34:24;;;;;;;6.05;2.47;;;14.90;99.90;;;;;;5025181;28;20056;-71
2022/06/23 04:36:51;;;;;;;5.13;2.72;;;14.80;99.90;;;;;;5023855;28;20703;-70
2022/06/23 04:39:36;;;;;;;6.85;2.95;;;14.90;99.90;;;;;;5025931;28;20030;-72
2022/06/23 04:42:29;;;;;;;6.43;2.58;;;14.90;99.90;;;;;;5028868;28;20037;-71
2022/06/23 04:45:02;;;;;;;7.35;2.80;;;14.90;99.90;;;;;;5024408;28;20076;-71
2022/06/23 04:47:31;;;;;;;7.07;2.50;;;15.00;99.90;;;;;;5030111;28;20030;-71
2022/06/23 04:50:17;;;;;;;9.00;2.78;;;15.00;99.90;;;;;;5035903;28;20033;-71
2022/06/23 04:52:54;;;;;;;5.05;2.72;;;15.00;99.90;;;;;;5033896;28;20037;-71
2022/06/23 04:55:27;;;;;;;6.82;2.90;;;15.00;99.90;;;;;;5049595;28;20045;-71
2022/06/23 04:58:04;;;;;;;6.30;3.05;;;15.10;99.90;;;;;;5044274;28;20486;-71
2022/06/23 05:00:38;;;;;;;5.78;2.90;;;15.10;99.90;;;;;;5050924;28;20039;-69
2022/06/23 05:03:24;;;;;;;6.05;2.65;;;15.10;99.90;;;;;;5050297;28;20051;-71
2022/06/23 05:05:59;;;;;;;6.07;2.72;;;15.10;99.90;;;;;;5047598;28;20140;-69
2022/06/23 05:08:30;;;;;;;8.88;2.72;;;15.10;99.90;;;;;;5031561;28;20410;-70
2022/06/23 05:11:15;;;;;;;5.20;2.80;;;15.10;99.90;;;;;;5049416;28;20487;-69
2022/06/23 05:13:48;;;;;;;5.65;2.90;;;15.10;99.90;;;;;;5051593;28;20163;-70
2022/06/23 05:16:22;;;;;;;7.00;2.88;;;15.20;99.90;;;;;;5032200;28;20021;-70
2022/06/23 05:18:51;;;;;;;6.68;2.90;;;15.20;99.90;;;;;;5045163;28;20041;-71
2022/06/23 05:21:27;;;;;;;5.15;2.90;;;15.20;99.90;;;;;;5042789;28;20021;-69
2022/06/23 05:23:59;;;;;;;7.68;3.00;;;15.20;99.90;;;;;;5035564;28;20047;-70
2022/06/23 05:26:31;;;;;;;7.53;3.10;;;15.20;99.90;;;;;;5048882;28;20036;-70
2022/06/23 05:29:01;;;;;;;7.72;3.10;;;15.20;99.90;;;;;;5050320;28;20922;-70
2022/06/23 05:31:35;;;;;;;5.88;3.05;;;15.20;99.90;;;;;;5048994;28;20112;-70
2022/06/23 05:34:24;;;;;;;7.55;3.17;;;15.20;99.90;;;;;;5048979;28;20682;-71
2022/06/23 05:37:15;;;;;;;7.53;3.20;;;15.30;99.90;;;;;;5050593;28;20164;-70
2022/06/23 05:40:15;;;;;;;7.05;3.10;;;15.30;99.90;;;;;;5047968;28;20064;-70
2022/06/23 05:42:46;;;;;;;8.93;3.20;;;15.20;99.90;;;;;;5028552;28;20160;-72
2022/06/23 05:45:19;;;;;;;8.40;3.10;;;15.30;99.90;;;;;;5030835;28;20024;-69
2022/06/23 05:47:45;;;;;;;6.45;3.00;;;15.30;99.90;;;;;;5036378;28;20083;-70
2022/06/23 05:50:20;;;;;;;8.32;3.42;;;15.30;99.90;;;;;;5034102;28;20033;-72
2022/06/23 05:53:06;;;;;;;6.95;3.38;;;15.30;99.90;;;;;;5036522;28;20038;-71
2022/06/23 05:55:45;;;;;;;7.88;3.60;;;15.30;99.90;;;;;;5022238;28;20037;-70
2022/06/23 05:58:15;;;;;;;6.22;3.42;;;15.30;99.90;;;;;;5044750;28;20136;-72
2022/06/23 06:00:54;;;;;;;9.52;3.90;;;15.30;99.90;;;;;;5035548;28;20029;-70
2022/06/23 06:03:23;;;;;;;6.63;3.28;;;15.30;99.90;;;;;;5035835;28;20478;-71
2022/06/23 06:05:54;;;;;;;8.35;4.15;;;15.30;99.90;;;;;;5028924;28;20475;-70
2022/06/23 06:11:25;;;;;;;10.35;4.20;;;15.30;99.90;;;;;;5029839;28;20040;-71
2022/06/23 06:13:51;;;;;;;6.45;3.80;;;15.30;99.90;;;;;;5036038;28;20037;-70
2022/06/23 06:16:17;;;;;;;8.13;3.95;;;15.30;99.90;;;;;;5030782;28;20487;-71
2022/06/23 06:18:44;;;;;;;7.63;3.45;;;15.40;99.90;;;;;;5030425;28;20040;-70
2022/06/23 06:21:13;;;;;;;7.13;4.05;;;15.40;99.90;;;;;;5031342;28;20026;-70
2022/06/23 06:23:51;;;;;;;9.80;4.03;;;15.50;99.90;;;;;;5030116;28;20191;-70
2022/06/23 06:26:20;;;;;;;8.05;3.40;;;15.50;99.90;;;;;;5060088;28;20736;-70
2022/06/23 06:28:46;;;;;;;8.43;3.38;;;15.50;99.90;;;;;;5023251;28;20203;-72
2022/06/23 06:31:32;;;;;;;7.60;3.80;;;15.60;99.90;;;;;;5030190;28;20045;-73
2022/06/23 06:34:13;;;;;;;6.57;3.70;;;15.60;99.90;;;;;;5027216;28;20021;-71
2022/06/23 06:36:45;;;;;;;7.72;3.75;;;15.70;99.90;;;;;;5028678;28;20044;-71
2022/06/23 06:39:18;;;;;;;7.75;3.85;;;15.70;99.90;;;;;;5055323;28;20036;-71
2022/06/23 06:41:52;;;;;;;5.53;3.13;;;15.80;99.90;;;;;;5048413;28;20687;-72
2022/06/23 06:44:18;;;;;;;7.93;3.03;;;15.90;99.90;;;;;;5026557;28;20037;-70
2022/06/23 06:46:45;;;;;;;4.82;3.10;;;15.90;99.90;;;;;;5027740;28;20113;-71
2022/06/23 06:49:18;;;;;;;6.47;3.38;;;16.00;99.90;;;;;;5023655;28;20046;-69
2022/06/23 06:51:45;;;;;;;8.65;3.67;;;16.10;99.90;;;;;;5026564;28;20386;-71
2022/06/23 06:54:43;;;;;;;6.78;3.30;;;16.20;99.90;;;;;;5016544;28;20032;-71
2022/06/23 06:57:51;;;;;;;7.93;3.75;;;16.30;99.90;;;;;;5046243;28;20112;-69
2022/06/23 07:00:24;;;;;;;8.30;3.00;;;16.40;99.90;;;;;;5003452;28;20081;-70
2022/06/23 07:03:10;;;;;;;7.35;3.80;;;16.50;99.90;;;;;;4995610;28;20171;-71
2022/06/23 07:05:39;;;;;;;7.90;3.67;;;16.60;99.90;;;;;;4997109;28;20637;-73
2022/06/23 07:08:22;;;;;;;5.55;3.22;;;16.70;99.90;;;;;;5004619;28;20049;-71
2022/06/23 07:10:57;;;;;;;6.13;3.45;;;16.80;99.90;;;;;;5005185;28;20087;-74
2022/06/23 07:13:30;;;;;;;7.40;3.63;;;16.90;99.90;;;;;;5006009;28;20041;-70
2022/06/23 07:16:02;;;;;;;9.30;3.60;;;17.00;99.90;;;;;;4990668;28;20026;-71
2022/06/23 07:18:31;;;;;;;7.88;4.10;;;17.10;99.90;;;;;;5001937;28;20049;-70
2022/06/23 07:21:06;;;;;;;7.93;3.83;;;17.10;99.90;;;;;;5001130;28;20124;-70
2022/06/23 07:23:45;;;;;;;8.85;4.30;;;17.10;99.90;;;;;;5012316;28;20049;-71
2022/06/23 07:26:24;;;;;;;8.20;4.03;;;17.20;99.90;;;;;;4986500;28;20707;-71
2022/06/23 07:28:55;;;;;;;6.60;3.90;;;17.20;99.90;;;;;;4985997;28;20041;-70
2022/06/23 07:31:28;;;;;;;9.38;4.20;;;17.30;99.90;;;;;;5005292;28;20036;-70
2022/06/23 07:34:05;;;;;;;8.05;4.05;;;17.30;99.90;;;;;;5014428;28;20045;-69
2022/06/23 07:36:43;;;;;;;7.97;4.65;;;17.40;99.90;;;;;;5058505;28;20041;-70
2022/06/23 07:39:12;;;;;;;7.60;4.25;;;17.50;99.90;;;;;;5027386;28;20025;-70
2022/06/23 07:41:43;;;;;;;9.68;4.93;;;17.50;99.90;;;;;;5025429;28;20036;-71
2022/06/23 07:44:21;;;;;;;8.30;4.47;;;17.50;99.90;;;;;;5023968;28;20069;-71
2022/06/23 07:46:47;;;;;;;7.85;4.55;;;17.60;99.90;;;;;;5026965;28;20034;-71
2022/06/23 07:49:13;;;;;;;9.20;4.63;;;17.60;99.90;;;;;;5027400;28;20033;-71
2022/06/23 07:51:41;;;;;;;9.00;4.82;;;17.60;99.90;;;;;;5025516;28;20726;-70
2022/06/23 07:54:10;;;;;;;10.00;4.53;;;17.70;99.90;;;;;;5027151;28;20506;-70
2022/06/23 07:56:39;;;;;;;8.10;4.72;;;17.70;99.90;;;;;;5027286;28;20680;-70
2022/06/23 07:59:15;;;;;;;9.85;4.47;;;17.80;99.90;;;;;;5028608;28;20136;-69
2022/06/23 08:02:18;;;;;;;9.02;4.55;;;17.80;99.90;;;;;;5028539;28;20117;-71
2022/06/23 08:04:59;;;;;;;8.05;4.13;;;17.90;99.90;;;;;;5015606;28;20056;-70
2022/06/23 08:07:26;;;;;;;10.02;4.88;;;17.90;99.90;;;;;;5026428;28;20037;-69
2022/06/23 08:09:59;;;;;;;9.05;4.78;;;18.00;99.90;;;;;;5027809;28;20063;-70
2022/06/23 08:12:54;;;;;;;11.77;4.70;;;18.10;99.90;;;;;;5025026;28;20037;-71
2022/06/23 08:18:36;;;;;;;9.52;4.90;;;18.20;99.90;;;;;;5019863;28;20478;-71
2022/06/23 08:21:15;;;;;;;10.25;5.03;;;18.20;99.90;;;;;;5026266;28;20112;-70
2022/06/23 08:23:45;;;;;;;;;;;18.20;99.90;;;;;;5026239;28;20604;-70
2022/06/23 08:26:12;;;;;;;10.63;5.60;;;18.30;99.90;;;;;;5027542;28;19919;-71
2022/06/23 08:28:39;;;;;;;11.00;5.40;;;18.40;99.90;;;;;;5024822;28;20459;-69
2022/06/23 08:31:06;;;;;;;11.88;5.18;;;18.40;99.90;;;;;;5023553;28;20446;-70
2022/06/23 08:33:33;;;;;;;9.57;5.30;;;18.50;99.90;;;;;;5014686;28;20036;-69
2022/06/23 08:36:07;;;;;;;10.43;5.65;;;18.60;99.90;;;;;;5026438;28;20482;-70
2022/06/23 08:38:45;;;;;;;10.30;5.07;;;18.60;99.90;;;;;;5016456;28;20442;-71
2022/06/23 08:41:25;;;;;;;8.52;4.97;;;18.70;99.90;;;;;;5021227;28;20033;-70
2022/06/23 08:44:08;;;;;;;10.45;5.72;;;18.80;99.90;;;;;;5018409;28;20113;-71
2022/06/23 08:46:39;;;;;;;12.52;5.65;;;18.80;99.90;;;;;;5021571;28;20025;-71
2022/06/23 08:49:08;;;;;;;9.27;4.85;;;18.90;99.90;;;;;;5017642;28;20080;-73
2022/06/23 08:51:37;;;;;;;9.73;5.93;;;18.90;99.90;;;;;;5018842;28;20037;-71
2022/06/23 08:54:25;;;;;;;9.40;6.22;;;19.00;99.90;;;;;;5015615;28;20484;-70
2022/06/23 08:57:17;;;;;;;9.93;5.60;;;19.00;99.90;;;;;;5023310;28;20029;-70
2022/06/23 09:00:02;;;;;;;8.77;5.45;;;19.00;99.90;;;;;;5024747;28;20425;-71
2022/06/23 09:02:56;;;;;;;9.57;4.97;;;19.10;99.90;;;;;;5027230;28;20111;-71
2022/06/23 09:05:32;;;;;;;11.70;5.63;;;19.20;99.90;;;;;;5023695;28;20068;-72
2022/06/23 09:08:22;;;;;;;10.57;5.57;;;19.20;99.90;;;;;;5026105;28;20181;-70
2022/06/23 09:11:04;;;;;;;8.70;5.55;;;19.30;99.90;;;;;;5025951;28;20026;-70
2022/06/23 09:14:11;;;;;;;11.13;6.22;;;19.40;99.90;;;;;;5027283;28;20044;-70
2022/06/23 09:16:54;;;;;;;11.65;5.95;;;19.40;99.90;;;;;;5020628;28;20033;-70
2022/06/23 09:19:37;;;;;;;8.48;5.50;;;19.50;99.90;;;;;;5024163;28;20042;-70
2022/06/23 09:22:37;;;;;;;9.05;4.68;;;19.60;99.90;;;;;;5023458;28;20046;-71
2022/06/23 09:25:10;;;;;;;;;;;19.90;99.90;;;;;;5022451;28;20053;-69
2022/06/23 09:28:05;;;;;;;9.35;5.10;;;20.00;99.90;;;;;;5018356;28;20429;-71
2022/06/23 09:30:55;;;;;;;12.45;5.05;;;20.10;99.90;;;;;;5016819;28;20089;-70
2022/06/23 09:34:08;;;;;;;9.70;5.63;;;20.20;99.90;;;;;;5027652;28;20059;-70
2022/06/23 09:36:55;;;;;;;11.73;5.60;;;20.30;99.90;;;;;;4987453;28;20804;-69
2022/06/23 09:39:34;;;;;;;10.77;5.10;;;20.40;99.90;;;;;;4988214;28;20089;-70
2022/06/23 09:42:09;;;;;;;10.52;5.97;;;20.40;99.90;;;;;;4998450;28;20034;-70
2022/06/23 09:45:03;;;;;;;9.00;5.90;;;20.50;99.90;;;;;;4984269;28;20596;-71
2022/06/23 09:47:35;;;;;;;11.38;5.78;;;20.50;99.90;;;;;;4988314;28;20497;-70
2022/06/23 09:50:18;;;;;;;10.20;5.88;;;20.60;99.90;;;;;;4989833;28;20073;-69
2022/06/23 09:52:53;;;;;;;11.77;6.40;;;20.60;99.90;;;;;;4988113;28;20042;-72
2022/06/23 09:55:32;;;;;;;9.15;5.93;;;20.70;99.90;;;;;;5014994;28;20702;-71
2022/06/23 09:58:15;;;;;;;9.93;5.20;;;20.80;99.90;;;;;;5005647;28;20060;-70
2022/06/23 10:01:20;;;;;;;11.07;5.35;;;20.90;99.90;;;;;;4990805;28;20404;-71
2022/06/23 10:03:54;;;;;;;8.73;5.32;;;21.10;99.90;;;;;;4989277;28;20058;-71
2022/06/23 10:06:42;;;;;;;10.52;5.88;;;21.50;99.90;;;;;;5007076;28;20120;-71
2022/06/23 10:09:35;;;;;;;8.57;4.65;;;21.70;99.30;;;;;;5023353;28;20038;-72
2022/06/23 10:12:30;;;;;;;7.97;5.18;;;21.80;99.50;;;;;;4998198;28;20404;-73
2022/06/23 10:15:30;;;;;;;9.18;5.60;;;21.70;98.70;;;;;;5012692;28;20575;-71
2022/06/23 10:18:08;;;;;;;10.35;5.15;;;21.80;99.10;;;;;;5012871;28;20144;-71
2022/06/23 10:20:48;;;;;;;7.03;5.20;;;21.80;98.80;;;;;;5011397;28;20153;-70
2022/06/23 10:23:35;;;;;;;11.52;4.90;;;21.90;98.70;;;;;;5052691;28;20492;-71
2022/06/23 10:26:15;;;;;;;6.63;3.95;;;22.00;99.00;;;;;;5028550;28;20831;-70
2022/06/23 10:28:53;;;;;;;8.18;3.92;;;22.20;96.40;;;;;;5015260;28;20101;-71
2022/06/23 10:31:34;;;;;;;8.07;3.97;;;22.40;95.60;;;;;;5010270;28;20033;-70
2022/06/23 10:34:02;;;;;;;6.82;3.40;;;22.60;95.30;;;;;;5010024;28;20038;-70
2022/06/23 10:36:57;;;;;;;7.07;3.92;;;22.70;95.00;;;;;;5010096;28;20507;-70
2022/06/23 10:39:48;;;;;;;6.43;3.75;;;22.90;94.50;;;;;;5018062;28;20033;-71
2022/06/23 10:42:29;;;;;;;7.30;3.97;;;23.10;94.60;;;;;;5029820;28;20069;-70
2022/06/23 10:45:05;;;;;;;8.35;3.63;;;23.30;94.40;;;;;;5028453;28;20021;-70
2022/06/23 10:47:49;;;;;;;8.55;3.80;;;23.50;92.20;;;;;;5029972;28;20108;-71
2022/06/23 10:50:24;;;;;;;7.35;3.90;;;23.60;92.70;;;;;;5029765;28;20029;-70
2022/06/23 10:53:07;;;;;;;6.80;3.85;;;23.60;92.50;;;;;;5028305;28;20047;-70
2022/06/23 10:56:16;;;;;;;7.45;4.03;;;23.60;91.50;;;;;;5029977;28;20033;-70
2022/06/23 10:58:56;;;;;;;7.93;4.22;;;23.40;92.60;;;;;;5023214;28;20091;-71
2022/06/23 11:01:46;;;;;;;6.72;4.13;;;23.40;91.60;;;;;;5029299;28;20025;-72
2022/06/23 11:04:33;;;;;;;8.57;4.03;;;23.40;92.10;;;;;;5029768;28;20037;-70
2022/06/23 11:07:17;;;;;;;8.00;4.40;;;23.60;91.50;;;;;;5028373;28;20025;-69
2022/06/23 11:09:58;;;;;;;8.90;3.88;;;23.80;90.50;;;;;;5029834;28;20044;-70
2022/06/23 11:12:35;;;;;;;7.03;3.60;;;24.10;88.30;;;;;;5029159;28;20421;-70
2022/06/23 11:15:24;;;;;;;5.93;3.28;;;24.40;90.30;;;;;;5029382;28;20029;-69
2022/06/23 11:17:52;;;;;;;7.20;4.30;;;24.90;82.90;;;;;;5025810;28;20058;-70
2022/06/23 11:20:21;;;;;;;7.13;3.67;;;24.90;80.50;;;;;;5023398;28;20034;-71
2022/06/23 11:22:58;;;;;;;6.72;4.65;;;24.70;80.70;;;;;;5009209;28;20049;-70
2022/06/23 11:25:35;;;;;;;6.63;3.65;;;24.50;82.00;;;;;;5009056;28;20030;-70
2022/06/23 11:28:48;;;;;;;7.57;3.95;;;25.00;82.30;;;;;;5007873;28;20053;-70
2022/06/23 11:31:43;;;;;;;6.97;3.25;;;24.90;79.20;;;;;;5007816;28;20041;-70
2022/06/23 11:34:24;;;;;;;6.45;4.03;;;24.70;80.10;;;;;;5009094;28;20103;-70
2022/06/23 11:37:27;;;;;;;6.95;3.75;;;24.60;77.40;;;;;;5019772;28;20026;-69
2022/06/23 11:40:14;;;;;;;7.60;4.18;;;24.30;77.60;;;;;;5028454;28;20033;-69
2022/06/23 11:42:59;;;;;;;9.25;4.43;;;24.10;79.60;;;;;;5028316;28;20072;-69
2022/06/23 11:45:47;;;;;;;7.40;4.10;;;24.20;77.90;;;;;;5029013;28;20091;-69
2022/06/23 11:48:46;;;;;;;5.03;3.25;;;24.40;79.00;;;;;;5028531;28;20784;-70
2022/06/23 11:51:24;;;;;;;7.68;4.40;;;24.60;79.50;;;;;;5026871;28;20029;-69
2022/06/23 11:53:53;;;;;;;8.65;4.28;;;24.90;74.40;;;;;;5028137;28;20060;-71
2022/06/23 11:56:45;;;;;;;6.77;4.00;;;25.20;75.70;;;;;;5027123;28;20045;-71
2022/06/23 11:59:35;;;;;;;7.28;3.45;;;25.50;73.40;;;;;;5028363;28;20086;-71
2022/06/23 12:02:01;;;;;;;7.10;4.00;;;25.50;73.50;;;;;;5026744;28;20041;-72
2022/06/23 12:04:57;;;;;;;9.02;3.78;;;25.40;72.50;;;;;;5027949;28;20047;-71
2022/06/23 12:07:47;;;;;;;6.68;4.07;;;25.20;74.60;;;;;;5028330;28;20528;-70
2022/06/23 12:10:22;;;;;;;10.98;5.32;;;25.10;78.10;;;;;;5026922;28;20045;-70
2022/06/23 12:12:51;;;;;;;10.43;6.75;;;25.00;90.10;;;;;;5021480;28;20034;-71
2022/06/23 12:15:20;;;;;;;;;;;25.00;91.50;;;;;;5007610;28;20036;-71
2022/06/23 12:18:10;;;;;;;16.50;10.07;;;24.90;92.50;;;;;;5008015;28;19914;-72
2022/06/23 12:20:54;;;;;;;18.38;12.55;;;24.80;93.60;;;;;;5008628;28;20046;-71
2022/06/23 12:23:49;;;;;;;23.35;13.63;;;24.60;93.80;;;;;;5008448;28;20042;-71
2022/06/23 12:26:21;;;;;;;24.63;15.43;;;24.30;94.70;;;;;;5008401;28;20022;-70
2022/06/23 12:29:14;;;;;;;29.30;16.45;;;24.00;95.70;;;;;;5007945;28;20462;-73
2022/06/23 12:31:45;;;;;;;26.55;17.42;;;23.80;95.70;;;;;;5008250;28;20041;-70
2022/06/23 12:34:38;;;;;;;32.22;19.23;;;23.50;96.10;;;;;;5014715;28;20083;-71
2022/06/23 12:37:23;;;;;;;26.35;15.95;;;23.40;96.60;;;;;;5006858;28;20116;-70
2022/06/23 12:40:16;;;;;;;25.85;16.70;;;23.40;96.40;;;;;;5008301;28;20713;-75
2022/06/23 12:42:47;;;;;;;28.25;17.67;;;23.30;96.50;;;;;;5008295;28;20392;-71
2022/06/23 12:45:55;;;;;;;22.35;14.27;;;23.20;96.90;;;;;;5007065;28;20030;-73
2022/06/23 12:48:26;;;;;;;26.38;16.70;;;23.00;97.70;;;;;;5026970;28;20066;-69
2022/06/23 12:51:15;;;;;;;23.55;14.02;;;22.90;97.30;;;;;;5028155;28;20052;-70
2022/06/23 12:54:05;;;;;;;23.90;14.63;;;22.90;98.30;;;;;;5026691;28;20036;-71
2022/06/23 12:56:36;;;;;;;24.77;14.80;;;23.00;98.00;;;;;;5027982;28;20312;-75
2022/06/23 12:59:16;;;;;;;25.15;13.68;;;23.30;98.30;;;;;;5028110;28;20025;-74
2022/06/23 13:01:52;;;;;;;20.45;14.00;;;23.40;97.50;;;;;;5026614;28;20488;-71
2022/06/23 13:04:30;;;;;;;22.30;13.80;;;23.50;96.60;;;;;;5027814;28;20044;-73
2022/06/23 13:07:04;;;;;;;20.27;13.63;;;23.70;96.20;;;;;;5031802;28;20029;-73
2022/06/23 13:09:41;;;;;;;18.95;13.05;;;23.90;95.80;;;;;;5031655;28;20038;-72
2022/06/23 13:12:16;;;;;;;21.70;13.70;;;24.10;95.80;;;;;;5030184;28;20112;-73
2022/06/23 13:15:04;;;;;;;24.30;14.57;;;24.30;95.00;;;;;;5030214;28;20028;-71
2022/06/23 13:17:46;;;;;;;18.98;12.73;;;24.30;94.10;;;;;;5031198;28;20042;-72
2022/06/23 13:20:28;;;;;;;20.42;13.18;;;24.00;94.30;;;;;;5031700;28;20101;-72
2022/06/23 13:23:16;;;;;;;22.75;13.02;;;23.60;94.80;;;;;;5027674;28;20096;-73
2022/06/23 13:25:53;;;;;;;19.63;12.60;;;23.60;95.20;;;;;;5031045;28;20052;-71
2022/06/23 13:28:32;;;;;;;18.63;11.95;;;23.30;95.70;;;;;;5031199;28;20203;-72
2022/06/23 13:31:23;;;;;;;23.48;13.35;;;23.10;96.50;;;;;;5029584;28;20026;-72
2022/06/23 13:34:01;;;;;;;20.60;12.95;;;23.00;96.50;;;;;;5031474;28;20041;-69
2022/06/23 13:36:43;;;;;;;19.47;11.97;;;23.00;97.30;;;;;;5031515;28;20033;-73
2022/06/23 13:39:36;;;;;;;14.73;9.98;;;22.90;96.90;;;;;;5031066;28;20041;-74
2022/06/23 13:42:20;;;;;;;24.10;12.80;;;22.80;97.00;;;;;;5030866;28;20040;-73
2022/06/23 13:45:07;;;;;;;20.13;12.15;;;22.60;96.50;;;;;;5029491;28;20053;-71
2022/06/23 13:47:55;;;;;;;20.65;11.45;;;22.50;97.20;;;;;;5031091;28;20187;-70
2022/06/23 13:50:38;;;;;;;16.45;10.73;;;22.40;97.60;;;;;;5030783;28;20542;-71
2022/06/23 13:53:17;;;;;;;23.63;13.77;;;22.40;97.90;;;;;;5029685;28;20047;-72
2022/06/23 13:55:59;;;;;;;18.00;12.10;;;22.40;97.00;;;;;;5029582;28;20038;-75
2022/06/23 13:58:28;;;;;;;21.58;12.10;;;22.30;97.10;;;;;;5029336;28;20048;-73